sensor_id;sensor_type;location;lat;lon;timestamp;pressure;altitude;pressure_sealevel;temperature;humidity
21109;BME280;10712;52.944;9.098;2023-03-14T00:00:12;98781.22;;;18.83;52.93
21109;BME280;10712;52.944;9.098;2023-03-14T00:02:40;98764.00;;;18.84;52.82
21109;BME280;10712;52.944;9.098;2023-03-14T00:05:07;98771.09;;;18.85;52.73
21109;BME280;10712;52.944;9.098;2023-03-14T00:07:37;98763.00;;;18.85;52.85
21109;BME280;10712;52.944;9.098;2023-03-14T00:10:11;98746.69;;;18.94;52.64
21109;BME280;10712;52.944;9.098;2023-03-14T00:12:38;98758.09;;;18.96;52.57
21109;BME280;10712;52.944;9.098;2023-03-14T00:15:05;98755.03;;;18.99;52.74
21109;BME280;10712;52.944;9.098;2023-03-14T00:17:34;98752.84;;;19.09;52.39
21109;BME280;10712;52.944;9.098;2023-03-14T00:20:06;98750.53;;;19.06;52.61
21109;BME280;10712;52.944;9.098;2023-03-14T00:22:36;98745.66;;;19.16;52.38
21109;BME280;10712;52.944;9.098;2023-03-14T00:25:03;98731.19;;;19.23;52.22
21109;BME280;10712;52.944;9.098;2023-03-14T00:27:29;98722.13;;;19.31;52.08
21109;BME280;10712;52.944;9.098;2023-03-14T00:29:55;98730.22;;;19.31;52.18
21109;BME280;10712;52.944;9.098;2023-03-14T00:32:21;98737.94;;;19.34;52.12
21109;BME280;10712;52.944;9.098;2023-03-14T00:34:47;98734.84;;;19.16;52.32
21109;BME280;10712;52.944;9.098;2023-03-14T00:37:13;98737.06;;;19.06;52.63
21109;BME280;10712;52.944;9.098;2023-03-14T00:39:39;98745.25;;;18.98;52.46
21109;BME280;10712;52.944;9.098;2023-03-14T00:42:05;98760.38;;;18.92;52.46
21109;BME280;10712;52.944;9.098;2023-03-14T00:44:31;98750.72;;;18.83;52.53
21109;BME280;10712;52.944;9.098;2023-03-14T00:46:57;98744.03;;;18.79;52.38
21109;BME280;10712;52.944;9.098;2023-03-14T00:49:24;98750.25;;;18.79;52.12
21109;BME280;10712;52.944;9.098;2023-03-14T00:51:51;98763.59;;;18.66;52.47
21109;BME280;10712;52.944;9.098;2023-03-14T00:54:20;98766.66;;;18.63;52.50
21109;BME280;10712;52.944;9.098;2023-03-14T00:56:47;98762.09;;;18.64;52.58
21109;BME280;10712;52.944;9.098;2023-03-14T00:59:13;98760.63;;;18.61;52.68
21109;BME280;10712;52.944;9.098;2023-03-14T01:01:39;98762.84;;;18.72;53.07
21109;BME280;10712;52.944;9.098;2023-03-14T01:04:05;98749.34;;;18.72;53.54
21109;BME280;10712;52.944;9.098;2023-03-14T01:06:31;98729.81;;;18.70;53.76
21109;BME280;10712;52.944;9.098;2023-03-14T01:08:58;98715.69;;;18.68;53.98
21109;BME280;10712;52.944;9.098;2023-03-14T01:11:30;98706.56;;;18.69;54.20
21109;BME280;10712;52.944;9.098;2023-03-14T01:13:57;98693.97;;;18.76;54.32
21109;BME280;10712;52.944;9.098;2023-03-14T01:16:27;98671.69;;;18.68;54.71
21109;BME280;10712;52.944;9.098;2023-03-14T01:18:53;98661.50;;;18.63;54.85
21109;BME280;10712;52.944;9.098;2023-03-14T01:21:25;98658.28;;;18.74;54.88
21109;BME280;10712;52.944;9.098;2023-03-14T01:23:54;98671.25;;;18.64;54.89
21109;BME280;10712;52.944;9.098;2023-03-14T01:26:23;98670.69;;;18.54;55.06
21109;BME280;10712;52.944;9.098;2023-03-14T01:28:52;98676.84;;;18.48;55.09
21109;BME280;10712;52.944;9.098;2023-03-14T01:31:19;98684.31;;;18.46;55.07
21109;BME280;10712;52.944;9.098;2023-03-14T01:33:46;98685.44;;;18.37;55.10
21109;BME280;10712;52.944;9.098;2023-03-14T01:36:12;98692.84;;;18.35;55.19
21109;BME280;10712;52.944;9.098;2023-03-14T01:38:40;98688.22;;;18.29;55.36
21109;BME280;10712;52.944;9.098;2023-03-14T01:41:16;98678.72;;;18.33;54.96
21109;BME280;10712;52.944;9.098;2023-03-14T01:43:44;98671.88;;;18.30;55.23
21109;BME280;10712;52.944;9.098;2023-03-14T01:46:29;98665.25;;;18.33;55.20
21109;BME280;10712;52.944;9.098;2023-03-14T01:49:32;98649.06;;;18.33;55.30
21109;BME280;10712;52.944;9.098;2023-03-14T01:52:29;98636.84;;;18.30;55.24
21109;BME280;10712;52.944;9.098;2023-03-14T01:55:05;98641.75;;;18.27;55.27
21109;BME280;10712;52.944;9.098;2023-03-14T01:57:58;98641.28;;;18.38;55.06
21109;BME280;10712;52.944;9.098;2023-03-14T02:00:26;98633.19;;;18.38;55.14
21109;BME280;10712;52.944;9.098;2023-03-14T02:02:57;98627.13;;;18.36;55.24
21109;BME280;10712;52.944;9.098;2023-03-14T02:05:30;98633.19;;;18.38;55.12
21109;BME280;10712;52.944;9.098;2023-03-14T02:08:04;98632.19;;;18.60;54.44
21109;BME280;10712;52.944;9.098;2023-03-14T02:10:44;98641.94;;;18.61;54.33
21109;BME280;10712;52.944;9.098;2023-03-14T02:13:12;98632.19;;;18.60;54.24
21109;BME280;10712;52.944;9.098;2023-03-14T02:16:00;98635.22;;;18.72;53.72
21109;BME280;10712;52.944;9.098;2023-03-14T02:18:40;98634.06;;;18.81;53.13
21109;BME280;10712;52.944;9.098;2023-03-14T02:22:05;98641.53;;;18.79;52.85
21109;BME280;10712;52.944;9.098;2023-03-14T02:27:20;98639.25;;;18.82;52.83
21109;BME280;10712;52.944;9.098;2023-03-14T02:29:57;98642.91;;;18.96;52.26
21109;BME280;10712;52.944;9.098;2023-03-14T02:32:27;98644.53;;;18.91;52.04
21109;BME280;10712;52.944;9.098;2023-03-14T02:34:59;98657.00;;;18.92;51.83
21109;BME280;10712;52.944;9.098;2023-03-14T02:38:00;98662.50;;;19.05;51.42
21109;BME280;10712;52.944;9.098;2023-03-14T02:40:33;98653.63;;;19.11;51.17
21109;BME280;10712;52.944;9.098;2023-03-14T02:42:59;98655.19;;;19.20;50.93
21109;BME280;10712;52.944;9.098;2023-03-14T02:45:33;98651.34;;;19.08;50.97
21109;BME280;10712;52.944;9.098;2023-03-14T02:48:07;98648.66;;;19.08;51.12
21109;BME280;10712;52.944;9.098;2023-03-14T02:50:38;98645.94;;;19.08;51.13
21109;BME280;10712;52.944;9.098;2023-03-14T02:53:05;98644.66;;;19.04;50.89
21109;BME280;10712;52.944;9.098;2023-03-14T02:55:31;98651.19;;;19.16;50.99
21109;BME280;10712;52.944;9.098;2023-03-14T02:58:02;98644.28;;;19.07;51.22
21109;BME280;10712;52.944;9.098;2023-03-14T03:00:28;98638.09;;;19.13;50.90
21109;BME280;10712;52.944;9.098;2023-03-14T03:02:56;98636.56;;;19.04;51.22
21109;BME280;10712;52.944;9.098;2023-03-14T03:05:22;98624.09;;;19.03;51.00
21109;BME280;10712;52.944;9.098;2023-03-14T03:07:47;98619.84;;;19.15;50.81
21109;BME280;10712;52.944;9.098;2023-03-14T03:10:13;98609.44;;;19.12;50.66
21109;BME280;10712;52.944;9.098;2023-03-14T03:12:40;98608.16;;;19.08;50.72
21109;BME280;10712;52.944;9.098;2023-03-14T03:15:06;98610.53;;;18.96;50.74
21109;BME280;10712;52.944;9.098;2023-03-14T03:17:35;98613.63;;;19.14;50.24
21109;BME280;10712;52.944;9.098;2023-03-14T03:20:01;98605.72;;;19.13;50.24
21109;BME280;10712;52.944;9.098;2023-03-14T03:22:26;98592.72;;;19.02;50.41
21109;BME280;10712;52.944;9.098;2023-03-14T03:24:52;98603.16;;;19.05;50.57
21109;BME280;10712;52.944;9.098;2023-03-14T03:27:18;98601.09;;;19.07;50.52
21109;BME280;10712;52.944;9.098;2023-03-14T03:29:44;98591.88;;;18.95;50.62
21109;BME280;10712;52.944;9.098;2023-03-14T03:32:10;98597.38;;;19.08;50.19
21109;BME280;10712;52.944;9.098;2023-03-14T03:34:36;98583.59;;;19.03;50.24
21109;BME280;10712;52.944;9.098;2023-03-14T03:37:01;98589.00;;;19.03;50.22
21109;BME280;10712;52.944;9.098;2023-03-14T03:39:30;98586.16;;;19.11;50.10
21109;BME280;10712;52.944;9.098;2023-03-14T03:41:56;98592.81;;;19.08;49.99
21109;BME280;10712;52.944;9.098;2023-03-14T03:44:22;98601.09;;;19.07;50.37
21109;BME280;10712;52.944;9.098;2023-03-14T03:46:48;98589.41;;;19.00;51.13
21109;BME280;10712;52.944;9.098;2023-03-14T03:49:14;98591.97;;;19.08;51.02
21109;BME280;10712;52.944;9.098;2023-03-14T03:51:40;98584.38;;;18.97;51.71
21109;BME280;10712;52.944;9.098;2023-03-14T03:54:06;98578.38;;;18.95;51.63
21109;BME280;10712;52.944;9.098;2023-03-14T03:56:32;98587.22;;;18.88;51.94
21109;BME280;10712;52.944;9.098;2023-03-14T03:58:59;98582.63;;;18.82;52.47
21109;BME280;10712;52.944;9.098;2023-03-14T04:01:25;98583.03;;;18.79;52.89
21109;BME280;10712;52.944;9.098;2023-03-14T04:03:54;98591.66;;;18.75;52.93
21109;BME280;10712;52.944;9.098;2023-03-14T04:06:20;98590.59;;;18.69;53.27
21109;BME280;10712;52.944;9.098;2023-03-14T04:08:48;98593.81;;;18.79;53.28
21109;BME280;10712;52.944;9.098;2023-03-14T04:11:26;98586.56;;;18.59;53.59
21109;BME280;10712;52.944;9.098;2023-03-14T04:14:24;98581.41;;;18.64;53.75
21109;BME280;10712;52.944;9.098;2023-03-14T04:17:01;98577.34;;;18.53;53.95
21109;BME280;10712;52.944;9.098;2023-03-14T04:19:27;98575.28;;;18.55;53.80
21109;BME280;10712;52.944;9.098;2023-03-14T04:21:55;98592.03;;;18.65;53.36
21109;BME280;10712;52.944;9.098;2023-03-14T04:24:24;98589.34;;;18.50;53.68
21109;BME280;10712;52.944;9.098;2023-03-14T04:26:51;98587.31;;;18.53;53.43
21109;BME280;10712;52.944;9.098;2023-03-14T04:29:16;98590.56;;;18.48;53.62
21109;BME280;10712;52.944;9.098;2023-03-14T04:31:44;98578.56;;;18.50;53.34
21109;BME280;10712;52.944;9.098;2023-03-14T04:34:10;98589.25;;;18.59;52.96
21109;BME280;10712;52.944;9.098;2023-03-14T04:36:41;98586.84;;;18.49;53.13
21109;BME280;10712;52.944;9.098;2023-03-14T04:39:13;98578.16;;;18.54;52.89
21109;BME280;10712;52.944;9.098;2023-03-14T04:41:45;98571.06;;;18.46;53.16
21109;BME280;10712;52.944;9.098;2023-03-14T04:44:12;98567.69;;;18.59;52.34
21109;BME280;10712;52.944;9.098;2023-03-14T04:46:38;98569.88;;;18.55;52.45
21109;BME280;10712;52.944;9.098;2023-03-14T04:49:06;98564.44;;;18.48;52.46
21109;BME280;10712;52.944;9.098;2023-03-14T04:51:31;98565.28;;;18.49;52.34
21109;BME280;10712;52.944;9.098;2023-03-14T04:53:57;98553.72;;;18.55;52.06
21109;BME280;10712;52.944;9.098;2023-03-14T04:56:24;98548.31;;;18.55;51.98
21109;BME280;10712;52.944;9.098;2023-03-14T04:58:50;98546.41;;;18.49;52.18
21109;BME280;10712;52.944;9.098;2023-03-14T05:01:17;98536.97;;;18.38;52.23
21109;BME280;10712;52.944;9.098;2023-03-14T05:04:02;98551.53;;;18.44;51.98
21109;BME280;10712;52.944;9.098;2023-03-14T05:06:46;98555.63;;;18.40;51.89
21109;BME280;10712;52.944;9.098;2023-03-14T05:09:25;98554.13;;;18.31;52.12
21109;BME280;10712;52.944;9.098;2023-03-14T05:12:13;98563.66;;;18.33;52.06
21109;BME280;10712;52.944;9.098;2023-03-14T05:15:06;98560.72;;;18.28;52.12
21109;BME280;10712;52.944;9.098;2023-03-14T05:17:50;98555.91;;;18.24;52.41
21109;BME280;10712;52.944;9.098;2023-03-14T05:20:39;98557.56;;;18.25;52.05
21109;BME280;10712;52.944;9.098;2023-03-14T05:23:23;98562.25;;;18.16;52.38
21109;BME280;10712;52.944;9.098;2023-03-14T05:25:49;98561.00;;;18.19;52.46
21109;BME280;10712;52.944;9.098;2023-03-14T05:28:44;98552.84;;;18.12;52.55
21109;BME280;10712;52.944;9.098;2023-03-14T05:31:22;98561.78;;;18.13;52.60
21109;BME280;10712;52.944;9.098;2023-03-14T05:33:56;98563.19;;;18.08;52.68
21109;BME280;10712;52.944;9.098;2023-03-14T05:36:40;98579.34;;;18.08;52.99
21109;BME280;10712;52.944;9.098;2023-03-14T05:39:29;98564.03;;;18.09;53.08
21109;BME280;10712;52.944;9.098;2023-03-14T05:42:14;98576.41;;;18.03;53.07
21109;BME280;10712;52.944;9.098;2023-03-14T05:44:54;98567.31;;;18.04;53.19
21109;BME280;10712;52.944;9.098;2023-03-14T05:47:48;98561.00;;;17.97;53.34
21109;BME280;10712;52.944;9.098;2023-03-14T05:50:56;98555.06;;;17.87;53.71
21109;BME280;10712;52.944;9.098;2023-03-14T05:53:29;98556.09;;;17.86;53.93
21109;BME280;10712;52.944;9.098;2023-03-14T05:56:14;98570.25;;;18.09;53.68
21109;BME280;10712;52.944;9.098;2023-03-14T05:58:56;98546.88;;;17.95;53.92
21109;BME280;10712;52.944;9.098;2023-03-14T06:01:28;98541.34;;;17.82;54.17
21109;BME280;10712;52.944;9.098;2023-03-14T06:04:05;98535.88;;;17.76;54.34
21109;BME280;10712;52.944;9.098;2023-03-14T06:06:32;98548.78;;;17.80;54.39
21109;BME280;10712;52.944;9.098;2023-03-14T06:08:59;98557.78;;;17.73;54.44
21109;BME280;10712;52.944;9.098;2023-03-14T06:11:25;98558.25;;;17.76;54.48
21109;BME280;10712;52.944;9.098;2023-03-14T06:13:51;98560.66;;;17.71;54.80
21109;BME280;10712;52.944;9.098;2023-03-14T06:16:17;98554.00;;;17.67;55.01
21109;BME280;10712;52.944;9.098;2023-03-14T06:18:43;98568.66;;;17.64;55.15
21109;BME280;10712;52.944;9.098;2023-03-14T06:21:12;98561.81;;;17.62;55.33
21109;BME280;10712;52.944;9.098;2023-03-14T06:23:38;98558.91;;;17.63;55.35
21109;BME280;10712;52.944;9.098;2023-03-14T06:26:05;98557.78;;;17.73;55.13
21109;BME280;10712;52.944;9.098;2023-03-14T06:28:31;98563.09;;;17.66;55.36
21109;BME280;10712;52.944;9.098;2023-03-14T06:31:00;98566.25;;;17.69;55.17
21109;BME280;10712;52.944;9.098;2023-03-14T06:33:30;98569.19;;;17.60;55.33
21109;BME280;10712;52.944;9.098;2023-03-14T06:35:57;98566.97;;;17.63;55.11
21109;BME280;10712;52.944;9.098;2023-03-14T06:38:23;98568.88;;;17.63;55.20
21109;BME280;10712;52.944;9.098;2023-03-14T06:40:53;98573.09;;;17.72;54.99
21109;BME280;10712;52.944;9.098;2023-03-14T06:43:29;98570.06;;;17.75;54.88
21109;BME280;10712;52.944;9.098;2023-03-14T06:45:55;98574.13;;;17.71;55.04
21109;BME280;10712;52.944;9.098;2023-03-14T06:48:21;98583.25;;;17.70;55.14
21109;BME280;10712;52.944;9.098;2023-03-14T06:50:51;98578.97;;;17.76;54.94
21109;BME280;10712;52.944;9.098;2023-03-14T06:53:17;98571.59;;;17.84;54.84
21109;BME280;10712;52.944;9.098;2023-03-14T06:55:43;98574.88;;;17.80;54.94
21109;BME280;10712;52.944;9.098;2023-03-14T06:58:11;98572.81;;;17.82;54.82
21109;BME280;10712;52.944;9.098;2023-03-14T07:00:43;98579.81;;;17.76;54.85
21109;BME280;10712;52.944;9.098;2023-03-14T07:03:14;98581.09;;;17.80;54.85
21109;BME280;10712;52.944;9.098;2023-03-14T07:05:43;98570.03;;;17.90;54.72
21109;BME280;10712;52.944;9.098;2023-03-14T07:08:09;98576.41;;;18.03;54.22
21109;BME280;10712;52.944;9.098;2023-03-14T07:10:35;98588.84;;;18.04;54.14
21109;BME280;10712;52.944;9.098;2023-03-14T07:13:01;98586.34;;;18.03;53.90
21109;BME280;10712;52.944;9.098;2023-03-14T07:15:30;98574.47;;;17.97;54.12
21109;BME280;10712;52.944;9.098;2023-03-14T07:18:01;98588.56;;;17.99;54.08
21109;BME280;10712;52.944;9.098;2023-03-14T07:20:28;98590.25;;;18.00;54.11
21109;BME280;10712;52.944;9.098;2023-03-14T07:22:55;98590.13;;;18.08;53.96
21109;BME280;10712;52.944;9.098;2023-03-14T07:25:33;98577.75;;;18.14;53.80
21109;BME280;10712;52.944;9.098;2023-03-14T07:27:59;98592.53;;;18.18;53.56
21109;BME280;10712;52.944;9.098;2023-03-14T07:30:25;98591.56;;;18.26;53.19
21109;BME280;10712;52.944;9.098;2023-03-14T07:32:52;98598.19;;;18.23;53.09
21109;BME280;10712;52.944;9.098;2023-03-14T07:35:20;98591.84;;;18.31;52.90
21109;BME280;10712;52.944;9.098;2023-03-14T07:37:46;98598.69;;;18.33;53.17
21109;BME280;10712;52.944;9.098;2023-03-14T07:40:14;98592.03;;;18.29;53.35
21109;BME280;10712;52.944;9.098;2023-03-14T07:42:43;98583.34;;;18.34;53.32
21109;BME280;10712;52.944;9.098;2023-03-14T07:45:26;98580.94;;;18.39;52.98
21109;BME280;10712;52.944;9.098;2023-03-14T07:47:51;98579.28;;;18.38;52.71
21109;BME280;10712;52.944;9.098;2023-03-14T07:50:17;98593.66;;;18.45;52.46
21109;BME280;10712;52.944;9.098;2023-03-14T07:52:44;98581.31;;;18.36;52.57
21109;BME280;10712;52.944;9.098;2023-03-14T07:55:10;98593.00;;;18.43;52.53
21109;BME280;10712;52.944;9.098;2023-03-14T07:57:38;98591.75;;;18.60;51.85
21109;BME280;10712;52.944;9.098;2023-03-14T08:00:05;98592.78;;;18.59;51.84
21109;BME280;10712;52.944;9.098;2023-03-14T08:02:38;98598.25;;;18.66;51.86
21109;BME280;10712;52.944;9.098;2023-03-14T08:05:05;98585.00;;;18.71;51.71
21109;BME280;10712;52.944;9.098;2023-03-14T08:07:30;98595.84;;;18.77;51.56
21109;BME280;10712;52.944;9.098;2023-03-14T08:09:56;98592.13;;;18.78;51.43
21109;BME280;10712;52.944;9.098;2023-03-14T08:12:22;98593.81;;;18.79;51.46
21109;BME280;10712;52.944;9.098;2023-03-14T08:14:48;98615.38;;;18.79;51.81
21109;BME280;10712;52.944;9.098;2023-03-14T08:17:13;98588.91;;;18.89;50.74
21109;BME280;10712;52.944;9.098;2023-03-14T08:19:41;98593.03;;;18.85;50.87
21109;BME280;10712;52.944;9.098;2023-03-14T08:22:07;98586.00;;;18.91;50.83
21109;BME280;10712;52.944;9.098;2023-03-14T08:24:33;98590.81;;;18.96;50.42
21109;BME280;10712;52.944;9.098;2023-03-14T08:26:59;98583.22;;;19.06;50.52
21109;BME280;10712;52.944;9.098;2023-03-14T08:29:25;98585.69;;;19.01;50.26
21109;BME280;10712;52.944;9.098;2023-03-14T08:31:51;98580.38;;;19.14;49.39
21109;BME280;10712;52.944;9.098;2023-03-14T08:34:17;98580.78;;;19.11;49.28
21109;BME280;10712;52.944;9.098;2023-03-14T08:36:43;98580.81;;;19.17;49.42
21109;BME280;10712;52.944;9.098;2023-03-14T08:39:08;98585.38;;;19.17;49.06
21109;BME280;10712;52.944;9.098;2023-03-14T08:41:35;98594.91;;;19.13;49.56
21109;BME280;10712;52.944;9.098;2023-03-14T08:44:07;98585.13;;;19.12;49.42
21109;BME280;10712;52.944;9.098;2023-03-14T08:46:33;98594.50;;;19.16;48.95
21109;BME280;10712;52.944;9.098;2023-03-14T08:48:59;98590.47;;;19.33;48.54
21109;BME280;10712;52.944;9.098;2023-03-14T08:51:25;98586.75;;;19.34;48.40
21109;BME280;10712;52.944;9.098;2023-03-14T08:53:51;98582.94;;;19.22;48.27
21109;BME280;10712;52.944;9.098;2023-03-14T08:56:17;98593.78;;;19.28;48.80
21109;BME280;10712;52.944;9.098;2023-03-14T08:58:43;98594.22;;;19.32;48.45
21109;BME280;10712;52.944;9.098;2023-03-14T09:01:10;98594.13;;;19.19;48.95
21109;BME280;10712;52.944;9.098;2023-03-14T09:03:37;98604.69;;;19.14;49.25
21109;BME280;10712;52.944;9.098;2023-03-14T09:06:05;98626.50;;;19.19;49.88
21109;BME280;10712;52.944;9.098;2023-03-14T09:08:32;98632.69;;;19.13;50.82
21109;BME280;10712;52.944;9.098;2023-03-14T09:10:59;98639.00;;;18.99;51.94
21109;BME280;10712;52.944;9.098;2023-03-14T09:13:25;98630.81;;;18.85;52.79
21109;BME280;10712;52.944;9.098;2023-03-14T09:15:53;98639.53;;;18.87;53.29
21109;BME280;10712;52.944;9.098;2023-03-14T09:18:19;98647.34;;;18.82;53.55
21109;BME280;10712;52.944;9.098;2023-03-14T09:20:45;98639.78;;;18.71;53.98
21109;BME280;10712;52.944;9.098;2023-03-14T09:23:10;98644.22;;;18.58;54.21
21109;BME280;10712;52.944;9.098;2023-03-14T09:25:36;98649.28;;;18.67;54.23
21109;BME280;10712;52.944;9.098;2023-03-14T09:28:02;98635.16;;;18.65;54.38
21109;BME280;10712;52.944;9.098;2023-03-14T09:30:28;98640.50;;;18.59;54.83
21109;BME280;10712;52.944;9.098;2023-03-14T09:32:54;98640.94;;;18.62;54.37
21109;BME280;10712;52.944;9.098;2023-03-14T09:35:19;98647.47;;;18.53;54.46
21109;BME280;10712;52.944;9.098;2023-03-14T09:37:45;98654.06;;;18.50;54.77
21109;BME280;10712;52.944;9.098;2023-03-14T09:40:17;98656.56;;;18.52;54.55
21109;BME280;10712;52.944;9.098;2023-03-14T09:42:43;98657.72;;;18.43;54.47
21109;BME280;10712;52.944;9.098;2023-03-14T09:45:25;98716.69;;;18.17;55.31
21109;BME280;10712;52.944;9.098;2023-03-14T09:47:52;98752.78;;;17.41;53.66
21109;BME280;10712;52.944;9.098;2023-03-14T09:50:19;98763.75;;;16.63;51.96
21109;BME280;10712;52.944;9.098;2023-03-14T09:52:56;98763.66;;;16.40;51.94
21109;BME280;10712;52.944;9.098;2023-03-14T09:55:22;98774.69;;;15.98;53.12
21109;BME280;10712;52.944;9.098;2023-03-14T09:57:54;98796.56;;;15.79;53.46
21109;BME280;10712;52.944;9.098;2023-03-14T10:00:26;98794.22;;;15.67;53.83
21109;BME280;10712;52.944;9.098;2023-03-14T10:05:48;98815.72;;;14.77;54.96
21109;BME280;10712;52.944;9.098;2023-03-14T10:08:14;98821.09;;;14.77;54.95
21109;BME280;10712;52.944;9.098;2023-03-14T10:10:41;98828.59;;;14.65;55.05
21109;BME280;10712;52.944;9.098;2023-03-14T10:15:37;98851.19;;;13.85;56.39
21109;BME280;10712;52.944;9.098;2023-03-14T10:18:10;98865.69;;;14.00;56.35
21109;BME280;10712;52.944;9.098;2023-03-14T10:20:44;98871.97;;;13.91;56.58
21109;BME280;10712;52.944;9.098;2023-03-14T10:25:57;98896.44;;;13.53;56.36
21109;BME280;10712;52.944;9.098;2023-03-14T10:31:50;98925.28;;;13.04;56.81
21109;BME280;10712;52.944;9.098;2023-03-14T10:34:26;98943.69;;;12.80;56.49
21109;BME280;10712;52.944;9.098;2023-03-14T10:36:59;98951.56;;;12.81;56.03
21109;BME280;10712;52.944;9.098;2023-03-14T10:42:23;98974.34;;;12.85;56.15
21109;BME280;10712;52.944;9.098;2023-03-14T10:44:56;99000.34;;;12.27;56.85
21109;BME280;10712;52.944;9.098;2023-03-14T10:47:25;99007.94;;;12.32;56.69
21109;BME280;10712;52.944;9.098;2023-03-14T10:49:52;99030.69;;;12.45;56.68
21109;BME280;10712;52.944;9.098;2023-03-14T10:55:09;99043.38;;;11.95;57.14
21109;BME280;10712;52.944;9.098;2023-03-14T10:57:44;99061.03;;;11.87;57.00
21109;BME280;10712;52.944;9.098;2023-03-14T11:00:19;99070.44;;;11.91;56.96
21109;BME280;10712;52.944;9.098;2023-03-14T11:03:10;99084.09;;;11.88;56.92
21109;BME280;10712;52.944;9.098;2023-03-14T11:05:59;99089.91;;;11.72;57.40
21109;BME280;10712;52.944;9.098;2023-03-14T11:08:57;99097.56;;;11.86;56.43
21109;BME280;10712;52.944;9.098;2023-03-14T11:11:32;99098.31;;;11.67;57.59
21109;BME280;10712;52.944;9.098;2023-03-14T11:16:56;99126.41;;;11.41;57.76
21109;BME280;10712;52.944;9.098;2023-03-14T11:19:42;99121.91;;;11.32;58.72
21109;BME280;10712;52.944;9.098;2023-03-14T11:22:37;99128.72;;;11.86;57.61
21109;BME280;10712;52.944;9.098;2023-03-14T11:25:24;99146.47;;;12.06;57.44
21109;BME280;10712;52.944;9.098;2023-03-14T11:28:09;99155.16;;;11.89;57.85
21109;BME280;10712;52.944;9.098;2023-03-14T11:30:50;99170.16;;;11.90;57.99
21109;BME280;10712;52.944;9.098;2023-03-14T11:33:35;99168.22;;;11.10;58.04
21109;BME280;10712;52.944;9.098;2023-03-14T11:36:13;99174.69;;;11.68;57.75
21109;BME280;10712;52.944;9.098;2023-03-14T11:38:51;99190.38;;;11.62;57.52
21109;BME280;10712;52.944;9.098;2023-03-14T11:41:25;99197.22;;;11.24;57.67
21109;BME280;10712;52.944;9.098;2023-03-14T11:43:59;99206.03;;;11.45;57.34
21109;BME280;10712;52.944;9.098;2023-03-14T11:46:43;99218.56;;;11.75;56.90
21109;BME280;10712;52.944;9.098;2023-03-14T11:49:24;99230.56;;;11.19;57.07
21109;BME280;10712;52.944;9.098;2023-03-14T11:51:59;99232.66;;;11.87;57.20
21109;BME280;10712;52.944;9.098;2023-03-14T11:54:41;99234.50;;;12.36;55.93
21109;BME280;10712;52.944;9.098;2023-03-14T11:57:16;99234.66;;;12.44;56.00
21109;BME280;10712;52.944;9.098;2023-03-14T12:00:04;99248.03;;;12.63;55.88
21109;BME280;10712;52.944;9.098;2023-03-14T12:03:04;99259.56;;;11.74;57.44
21109;BME280;10712;52.944;9.098;2023-03-14T12:13:52;99287.13;;;12.65;57.07
21109;BME280;10712;52.944;9.098;2023-03-14T12:18:50;99305.94;;;12.73;56.01
21109;BME280;10712;52.944;9.098;2023-03-14T12:21:18;99316.97;;;12.89;55.71
21109;BME280;10712;52.944;9.098;2023-03-14T12:23:55;99325.44;;;13.23;55.06
21109;BME280;10712;52.944;9.098;2023-03-14T12:26:26;99333.06;;;13.27;54.72
21109;BME280;10712;52.944;9.098;2023-03-14T12:29:15;99328.53;;;13.28;53.75
21109;BME280;10712;52.944;9.098;2023-03-14T12:34:42;99349.38;;;13.24;53.65
21109;BME280;10712;52.944;9.098;2023-03-14T12:37:33;99364.31;;;13.27;53.51
21109;BME280;10712;52.944;9.098;2023-03-14T12:40:41;99362.31;;;13.29;52.60
21109;BME280;10712;52.944;9.098;2023-03-14T12:43:29;99366.84;;;13.28;52.51
21109;BME280;10712;52.944;9.098;2023-03-14T12:46:28;99382.31;;;13.15;51.87
21109;BME280;10712;52.944;9.098;2023-03-14T12:51:37;99385.69;;;13.17;51.21
21109;BME280;10712;52.944;9.098;2023-03-14T12:57:53;99412.91;;;12.92;49.88
21109;BME280;10712;52.944;9.098;2023-03-14T13:00:39;99421.53;;;13.05;49.04
21109;BME280;10712;52.944;9.098;2023-03-14T13:03:25;99434.59;;;12.98;48.50
21109;BME280;10712;52.944;9.098;2023-03-14T13:08:55;99454.09;;;13.29;48.01
21109;BME280;10712;52.944;9.098;2023-03-14T13:11:23;99456.28;;;13.05;46.09
21109;BME280;10712;52.944;9.098;2023-03-14T13:13:57;99472.66;;;13.21;46.09
21109;BME280;10712;52.944;9.098;2023-03-14T13:16:25;99483.66;;;13.18;45.25
21109;BME280;10712;52.944;9.098;2023-03-14T13:19:15;99488.44;;;13.24;43.37
21109;BME280;10712;52.944;9.098;2023-03-14T13:21:44;99492.19;;;13.62;43.97
21109;BME280;10712;52.944;9.098;2023-03-14T13:24:25;99490.50;;;13.61;43.04
21109;BME280;10712;52.944;9.098;2023-03-14T13:26:56;99511.91;;;13.61;42.94
21109;BME280;10712;52.944;9.098;2023-03-14T13:31:55;99521.56;;;13.33;40.65
21109;BME280;10712;52.944;9.098;2023-03-14T13:34:31;99547.25;;;13.15;41.34
21109;BME280;10712;52.944;9.098;2023-03-14T13:36:57;99545.03;;;13.20;40.16
21109;BME280;10712;52.944;9.098;2023-03-14T13:39:26;99562.69;;;13.11;40.04
21109;BME280;10712;52.944;9.098;2023-03-14T13:41:59;99560.09;;;13.00;39.06
21109;BME280;10712;52.944;9.098;2023-03-14T13:44:36;99566.59;;;13.07;39.58
21109;BME280;10712;52.944;9.098;2023-03-14T13:47:09;99576.81;;;13.13;39.77
21109;BME280;10712;52.944;9.098;2023-03-14T13:49:37;99585.25;;;13.18;39.83
21109;BME280;10712;52.944;9.098;2023-03-14T13:52:24;99587.53;;;12.72;40.32
21109;BME280;10712;52.944;9.098;2023-03-14T13:54:55;99595.97;;;13.18;40.06
21109;BME280;10712;52.944;9.098;2023-03-14T13:57:21;99602.91;;;13.30;39.98
21109;BME280;10712;52.944;9.098;2023-03-14T14:00:06;99620.59;;;13.52;40.12
21109;BME280;10712;52.944;9.098;2023-03-14T14:02:39;99622.59;;;13.60;40.00
21109;BME280;10712;52.944;9.098;2023-03-14T14:05:05;99634.91;;;13.41;39.80
21109;BME280;10712;52.944;9.098;2023-03-14T14:07:31;99642.78;;;13.33;39.49
21109;BME280;10712;52.944;9.098;2023-03-14T14:09:59;99642.72;;;13.24;39.94
21109;BME280;10712;52.944;9.098;2023-03-14T14:12:43;99658.63;;;13.25;40.18